Terminal Aerodrome Forecast
Issued by NWS

Current Version | Previous Version | Text Only | Print | Product List | Glossary On
Versions: 1 2 3 4 5 6 7 8 9 10 11 12 13 14 15 16 17 18 19 20 21 22 23 24 25 26 27 28 29 30
000
FTUS43 KDTX 241137
TAFYIP
TAF
KYIP 241137Z 2412/2512 30005KT 2SM -SHRA BR OVC004
      TEMPO 2412/2414 4SM BR OVC008
     FM241400 32007KT 4SM -SHRA BR OVC008
     FM241800 32010KT P6SM OVC015
     FM250200 27005KT 3SM BR OVC008
     FM251000 VRB03KT 1SM BR OVC004=

USA.gov is the U.S. government's official web portal to all federal, state and local government web resources and services.